Terminal Aerodrome Forecast
Issued by NWS Portland, ME

Home | Current Version | Previous Version | Text Only | Print | Product List | Glossary On
Versions: 1 2 3 4 5 6 7 8 9 10 11 12 13 14 15 16
000
FTUS41 KGYX 210923 RRA
TAFCON
TAF
KCON 210923Z 2109/2206 04005KT P6SM OVC050
     FM211400 08007KT P6SM -RA OVC025
     FM211700 08008KT 4SM -RA BR OVC010
     FM220500 01004KT 2SM -RA BR OVC007=

USA.gov is the U.S. government's official web portal to all federal, state and local government web resources and services.